Aviation Digital Data Service (ADDS)

Output produced by METARs form (0340 UTC 28 June 2017)
found at http://www.aviationweather.gov/adds/metars/
 
METAR text: LRCV 280330Z 05005KT CAVOK 19/17 Q1012
Conditions at: LRCV (CRAIOVA , RO) observed 0330 UTC 28 June 2017
Temperature: 19.0°C (66°F)
Dewpoint: 17.0°C (63°F) [RH = 88%]
Pressure (altimeter): 29.88 inches Hg (1012.0 mb)
Winds: from the NE (50 degrees) at 6 MPH (5 knots; 2.6 m/s)
Visibility: 6 or more miles (10+ km)
Ceiling: ceiling and visibility are OK
Clouds: unknown
Weather: no significant weather observed at this time

Forecast for: LRCV (CRAIOVA , RO)
Text: TAF LRCV 280200Z 2803/2812 06006KT CAVOK
Forecast period: 0300 to 0800 UTC 28 June 2017
Forecast type: FROM: standard forecast or significant change
Winds: from the ENE (60 degrees) at 7 MPH (6 knots; 3.1 m/s)
Visibility: 6 or more miles (10+ km)
Clouds: not forecast
Weather: NSW  (no significant weather)
Text: BECMG 2808/2810 12010KT
Forecast period: 0800 to 1200 UTC 28 June 2017
Forecast type: BECOMING: Conditions expected to become as follows by 1000 UTC 28 June 2017
Winds: from the ESE (120 degrees) at 12 MPH (10 knots; 5.2 m/s)
Visibility: 6 or more miles (10+ km)
Weather: NSW  (no significant weather)